Time;durP1;ratioP1;P1;durP2;ratioP2;P2;SDS_P1;SDS_P2;PMS_P1;PMS_P2;Temp;Humidity;BMP_temperature;BMP_pressure;BME280_temperature;BME280_humidity;BME280_pressure;Samples;Min_cycle;Max_cycle;Signal;HPM_P1;HPM_P2
2021/08/23 00:00:17;;;;;;;4.65;4.03;;;24.20;87.30;;;;;;5090046;28;20028;-74
2021/08/23 00:02:43;;;;;;;5.20;3.10;;;24.20;87.50;;;;;;5093323;28;20016;-75
2021/08/23 00:05:10;;;;;;;3.92;3.30;;;24.20;87.70;;;;;;5093610;28;20051;-75
2021/08/23 00:07:36;;;;;;;5.53;3.50;;;24.20;87.80;;;;;;5074938;28;20131;-75
2021/08/23 00:10:02;;;;;;;7.88;4.07;;;24.20;87.30;;;;;;5093167;28;20103;-74
2021/08/23 00:12:29;;;;;;;5.07;3.78;;;24.30;87.10;;;;;;5093154;28;20016;-74
2021/08/23 00:14:55;;;;;;;4.07;3.65;;;24.30;87.40;;;;;;5093025;28;20062;-75
2021/08/23 00:17:21;;;;;;;4.07;3.38;;;24.30;87.50;;;;;;5093033;28;20067;-75
2021/08/23 00:19:47;;;;;;;6.60;4.07;;;24.30;87.30;;;;;;5092585;28;20020;-75
2021/08/23 00:24:59;;;;;;;3.65;3.25;;;24.20;88.00;;;;;;5093250;28;20083;-75
2021/08/23 00:27:26;;;;;;;6.15;3.22;;;24.20;88.00;;;;;;5092617;28;20025;-75
2021/08/23 00:29:52;;;;;;;5.60;4.15;;;24.20;88.30;;;;;;5074889;28;20021;-74
2021/08/23 00:32:18;;;;;;;5.55;3.95;;;24.20;88.10;;;;;;5092680;28;20536;-75
2021/08/23 00:34:44;;;;;;;3.30;3.10;;;24.30;88.10;;;;;;5092680;28;20020;-75
2021/08/23 00:37:10;;;;;;;6.00;3.97;;;24.30;88.20;;;;;;5092730;28;20494;-75
2021/08/23 00:39:36;;;;;;;3.45;3.15;;;24.30;87.60;;;;;;5092633;28;20119;-75
2021/08/23 00:42:03;;;;;;;5.00;3.67;;;24.40;87.50;;;;;;5092429;28;20023;-75
2021/08/23 00:44:33;;;;;;;6.53;3.63;;;24.40;87.30;;;;;;5092645;28;20036;-75
2021/08/23 00:47:00;;;;;;;11.10;4.90;;;24.30;87.50;;;;;;5092480;28;20418;-75
2021/08/23 00:49:26;;;;;;;3.90;3.50;;;24.20;88.20;;;;;;5074171;28;20026;-75
2021/08/23 00:51:53;;;;;;;3.92;3.40;;;24.20;88.40;;;;;;5092240;28;20044;-75
2021/08/23 00:54:19;;;;;;;4.85;4.03;;;24.20;88.20;;;;;;5074272;28;20024;-75
2021/08/23 00:56:46;;;;;;;5.07;3.80;;;24.20;88.20;;;;;;5092496;28;20043;-74
2021/08/23 00:59:11;;;;;;;5.95;3.95;;;24.20;88.40;;;;;;5092170;28;20028;-74
2021/08/23 01:01:57;;;;;;;3.60;3.30;;;24.20;88.50;;;;;;5092325;28;20524;-75
2021/08/23 01:04:35;;;;;;;4.90;3.67;;;24.20;88.60;;;;;;5074084;28;20028;-75
2021/08/23 01:07:03;;;;;;;7.18;4.10;;;24.20;88.70;;;;;;5091779;28;20369;-74
2021/08/23 01:09:33;;;;;;;4.78;4.00;;;24.20;88.70;;;;;;5092018;28;20030;-75
2021/08/23 01:12:01;;;;;;;6.82;4.07;;;24.10;88.60;;;;;;5073808;28;20103;-74
2021/08/23 01:14:27;;;;;;;4.03;3.63;;;24.20;88.60;;;;;;5092197;28;20032;-75
2021/08/23 01:16:52;;;;;;;3.72;3.42;;;24.10;88.30;;;;;;5091974;28;20030;-74
2021/08/23 01:19:21;;;;;;;4.03;3.63;;;24.20;88.70;;;;;;5091790;28;20035;-75
2021/08/23 01:21:49;;;;;;;9.48;3.88;;;24.10;88.60;;;;;;5091850;28;20051;-75
2021/08/23 01:24:15;;;;;;;3.47;3.28;;;24.20;88.60;;;;;;5091965;28;20102;-75
2021/08/23 01:26:45;;;;;;;5.75;3.08;;;24.20;88.90;;;;;;5091721;28;20131;-75
2021/08/23 01:29:20;;;;;;;14.05;4.20;;;24.10;88.80;;;;;;5091816;28;20319;-75
2021/08/23 01:32:04;;;;;;;3.80;3.47;;;24.10;89.10;;;;;;5090810;28;20028;-75
2021/08/23 01:34:30;;;;;;;4.38;3.50;;;24.00;89.00;;;;;;5091706;28;20027;-74
2021/08/23 01:36:55;;;;;;;3.83;3.50;;;24.00;89.20;;;;;;5091725;28;20035;-74
2021/08/23 01:39:21;;;;;;;3.90;3.60;;;24.00;89.10;;;;;;5073552;28;20028;-75
2021/08/23 01:41:48;;;;;;;4.13;3.63;;;24.00;88.90;;;;;;5091512;28;20020;-75
2021/08/23 01:44:14;;;;;;;3.47;3.17;;;24.00;88.20;;;;;;5091515;28;20024;-75
2021/08/23 01:46:40;;;;;;;3.33;3.00;;;24.10;87.70;;;;;;5091631;28;20024;-75
2021/08/23 01:49:08;;;;;;;4.10;2.72;;;24.20;87.30;;;;;;5091338;28;20426;-74
2021/08/23 01:51:34;;;;;;;2.95;2.75;;;24.20;86.40;;;;;;5091424;28;20032;-74
2021/08/23 01:54:01;;;;;;;2.53;2.35;;;24.30;86.40;;;;;;5073513;28;20515;-74
2021/08/23 01:56:27;;;;;;;2.72;2.50;;;24.30;86.00;;;;;;5091436;28;20032;-75
2021/08/23 01:58:58;;;;;;;4.45;2.78;;;24.40;85.20;;;;;;5091289;28;20031;-74
2021/08/23 02:01:24;;;;;;;3.08;2.80;;;24.40;85.60;;;;;;5091283;28;20035;-74
2021/08/23 02:03:50;;;;;;;2.72;2.53;;;24.40;84.50;;;;;;5088312;28;20021;-75
2021/08/23 02:06:16;;;;;;;2.25;2.15;;;24.40;83.80;;;;;;5091331;28;20046;-75
2021/08/23 02:08:42;;;;;;;2.40;2.30;;;24.40;83.60;;;;;;5073049;28;20052;-75
2021/08/23 02:11:08;;;;;;;3.28;2.35;;;24.40;83.70;;;;;;5073306;28;20020;-74
2021/08/23 02:13:34;;;;;;;2.55;2.35;;;24.50;83.50;;;;;;5091144;28;20021;-74
2021/08/23 02:16:00;;;;;;;2.67;1.92;;;24.50;82.70;;;;;;5091229;28;20466;-74
2021/08/23 02:18:25;;;;;;;2.40;2.20;;;24.60;82.70;;;;;;5091380;28;20060;-75
2021/08/23 02:20:51;;;;;;;2.85;2.17;;;24.60;81.80;;;;;;5091048;28;20103;-74
2021/08/23 02:23:17;;;;;;;2.45;2.28;;;24.70;82.00;;;;;;5091015;28;20024;-74
2021/08/23 02:25:42;;;;;;;2.67;2.33;;;24.70;82.10;;;;;;5092141;28;20549;-74
2021/08/23 02:28:08;;;;;;;1.92;1.83;;;24.60;81.60;;;;;;5092198;28;20494;-74
2021/08/23 02:30:34;;;;;;;2.50;2.30;;;24.60;81.50;;;;;;5092353;28;20132;-74
2021/08/23 02:33:00;;;;;;;2.10;2.00;;;24.60;81.40;;;;;;5092366;28;20058;-75
2021/08/23 02:35:25;;;;;;;3.67;2.67;;;24.60;82.30;;;;;;5092326;28;20657;-75
2021/08/23 02:37:51;;;;;;;2.85;2.58;;;24.70;81.90;;;;;;5074184;28;20071;-74
2021/08/23 02:40:17;;;;;;;3.10;2.78;;;24.60;81.90;;;;;;5092261;28;20021;-75
2021/08/23 02:42:43;;;;;;;2.03;1.92;;;24.70;82.70;;;;;;5092572;28;20503;-75
2021/08/23 02:45:09;;;;;;;2.53;2.33;;;24.70;82.50;;;;;;5077813;28;20046;-74
2021/08/23 02:47:36;;;;;;;2.72;2.33;;;24.70;82.80;;;;;;5095821;28;20020;-74
2021/08/23 02:50:06;;;;;;;2.20;2.03;;;24.70;82.50;;;;;;5069176;28;20021;-74
2021/08/23 02:52:33;;;;;;;1.75;1.65;;;24.70;81.60;;;;;;5075854;28;20353;-74
2021/08/23 02:54:59;;;;;;;3.83;2.00;;;24.70;81.00;;;;;;5075614;28;20155;-75
2021/08/23 02:57:24;;;;;;;1.80;1.65;;;24.70;80.30;;;;;;5057428;28;20490;-74
2021/08/23 02:59:50;;;;;;;2.08;1.95;;;24.70;78.40;;;;;;5075578;28;20024;-75
2021/08/23 03:02:16;;;;;;;2.10;1.90;;;24.80;77.40;;;;;;5075314;28;20028;-74
2021/08/23 03:04:41;;;;;;;1.73;1.58;;;24.80;77.20;;;;;;5075438;28;20051;-75
2021/08/23 03:07:07;;;;;;;1.80;1.70;;;24.80;77.70;;;;;;5075110;28;20049;-75
2021/08/23 03:09:33;;;;;;;2.08;1.77;;;24.80;79.60;;;;;;5075494;28;20024;-74
2021/08/23 03:11:59;;;;;;;3.10;2.30;;;24.80;80.70;;;;;;5075157;28;20020;-74
2021/08/23 03:14:25;;;;;;;2.58;2.38;;;24.70;82.90;;;;;;5075421;28;20039;-75
2021/08/23 03:16:51;;;;;;;2.45;2.25;;;24.60;84.20;;;;;;5057307;28;20390;-74
2021/08/23 03:19:17;;;;;;;2.72;2.53;;;24.60;85.00;;;;;;5075149;28;20021;-74
2021/08/23 03:21:42;;;;;;;5.35;2.80;;;24.60;85.80;;;;;;5074783;28;20035;-74
2021/08/23 03:24:08;;;;;;;2.50;2.30;;;24.50;86.40;;;;;;5075081;28;20622;-75
2021/08/23 03:26:34;;;;;;;2.40;2.20;;;24.60;85.20;;;;;;5075089;28;20056;-75
2021/08/23 03:29:00;;;;;;;1.77;1.67;;;24.60;84.80;;;;;;5074851;28;20020;-74
2021/08/23 03:31:25;;;;;;;1.50;1.40;;;24.60;82.10;;;;;;5074625;28;20069;-75
2021/08/23 03:33:51;;;;;;;1.95;1.85;;;24.60;82.10;;;;;;5074925;28;20032;-75
2021/08/23 03:36:17;;;;;;;1.80;1.70;;;24.60;81.10;;;;;;5074650;28;20029;-75
2021/08/23 03:38:43;;;;;;;2.33;1.90;;;24.60;82.70;;;;;;5074850;28;20031;-74
2021/08/23 03:41:10;;;;;;;4.57;1.55;;;24.60;82.70;;;;;;5074625;28;20048;-74
2021/08/23 03:43:36;;;;;;;2.17;1.63;;;24.50;81.90;;;;;;5074823;28;20341;-75
2021/08/23 03:46:02;;;;;;;4.32;1.55;;;24.50;80.00;;;;;;5074820;28;20028;-74
2021/08/23 03:48:27;;;;;;;2.05;1.85;;;24.60;80.30;;;;;;5074543;28;20120;-75
2021/08/23 03:50:53;;;;;;;1.60;1.50;;;24.60;79.80;;;;;;5090267;28;20020;-74
2021/08/23 03:53:19;;;;;;;1.20;1.20;;;24.50;78.50;;;;;;5076500;28;20474;-74
2021/08/23 03:55:45;;;;;;;1.40;1.30;;;24.60;78.80;;;;;;5093875;28;20016;-74
2021/08/23 03:58:10;;;;;;;1.30;1.20;;;24.60;77.70;;;;;;5076429;28;20028;-74
2021/08/23 04:00:36;;;;;;;1.20;1.20;;;24.60;78.40;;;;;;5094542;28;20024;-75
2021/08/23 04:03:02;;;;;;;1.38;1.13;;;24.50;77.70;;;;;;5094539;28;20024;-74
2021/08/23 04:05:27;;;;;;;2.30;1.00;;;24.50;75.90;;;;;;5086332;28;20032;-75
2021/08/23 04:07:53;;;;;;;1.55;1.45;;;24.50;76.10;;;;;;5074180;28;20044;-75
2021/08/23 04:10:19;;;;;;;1.20;1.10;;;24.50;76.00;;;;;;5074137;28;20460;-75
2021/08/23 04:12:45;;;;;;;1.17;1.08;;;24.50;76.90;;;;;;5056001;28;20107;-74
2021/08/23 04:15:11;;;;;;;1.02;1.00;;;24.40;76.80;;;;;;5056095;28;20435;-74
2021/08/23 04:17:36;;;;;;;1.52;1.00;;;24.40;76.20;;;;;;5073936;28;20032;-75
2021/08/23 04:20:03;;;;;;;0.88;0.88;;;24.50;76.30;;;;;;5082646;28;20112;-75
2021/08/23 04:22:29;;;;;;;1.00;1.00;;;24.40;76.30;;;;;;5075673;28;20050;-75
2021/08/23 04:24:55;;;;;;;1.70;0.98;;;24.30;76.10;;;;;;5076203;28;20043;-74
2021/08/23 04:27:21;;;;;;;1.27;1.17;;;24.30;76.60;;;;;;5093923;28;20388;-74
2021/08/23 04:29:46;;;;;;;0.93;0.93;;;24.30;76.40;;;;;;5093882;28;20426;-75
2021/08/23 04:32:12;;;;;;;1.35;1.25;;;24.30;76.40;;;;;;5093933;28;20103;-74
2021/08/23 04:34:38;;;;;;;4.32;1.17;;;24.20;76.50;;;;;;5094077;28;20074;-74
2021/08/23 04:37:04;;;;;;;1.15;1.05;;;24.20;77.10;;;;;;5093951;28;20024;-74
2021/08/23 04:39:31;;;;;;;1.40;1.30;;;24.20;77.00;;;;;;5093827;28;20032;-75
2021/08/23 04:41:57;;;;;;;1.30;1.20;;;24.10;76.80;;;;;;5093923;28;20028;-74
2021/08/23 04:44:23;;;;;;;0.93;0.93;;;24.00;76.90;;;;;;5093997;28;20028;-75
2021/08/23 04:46:50;;;;;;;1.55;1.00;;;24.10;77.60;;;;;;5093751;28;20028;-75
2021/08/23 04:49:16;;;;;;;1.27;1.17;;;24.00;77.40;;;;;;5093708;28;20111;-75
2021/08/23 04:51:42;;;;;;;1.08;1.08;;;24.00;77.40;;;;;;5093694;28;20016;-74
2021/08/23 04:54:08;;;;;;;1.00;1.00;;;24.00;77.80;;;;;;5093579;28;20145;-74
2021/08/23 04:56:33;;;;;;;2.55;1.33;;;24.00;78.00;;;;;;5075518;28;20039;-75
2021/08/23 04:58:59;;;;;;;0.93;0.93;;;24.00;77.70;;;;;;5075476;28;20039;-75
2021/08/23 05:01:25;;;;;;;1.80;1.30;;;24.00;78.20;;;;;;5093225;28;20020;-75
2021/08/23 05:03:51;;;;;;;1.90;1.13;;;24.00;77.60;;;;;;5093493;28;20586;-75
2021/08/23 05:06:16;;;;;;;1.08;1.00;;;24.00;77.90;;;;;;5093577;28;20070;-75
2021/08/23 05:08:42;;;;;;;3.08;1.10;;;24.00;77.90;;;;;;5093128;28;20125;-74
2021/08/23 05:11:08;;;;;;;1.25;1.10;;;23.90;77.60;;;;;;5093209;28;20035;-75
2021/08/23 05:13:34;;;;;;;1.33;1.05;;;23.90;77.90;;;;;;5093115;28;20519;-74
2021/08/23 05:16:00;;;;;;;4.97;1.55;;;23.90;78.40;;;;;;5093287;28;20030;-75
2021/08/23 05:18:26;;;;;;;3.15;1.20;;;23.90;78.30;;;;;;5093301;28;20036;-74
2021/08/23 05:20:52;;;;;;;1.15;1.10;;;23.80;78.30;;;;;;5093048;28;20019;-75
2021/08/23 05:23:18;;;;;;;1.10;0.98;;;23.80;78.40;;;;;;5093261;28;20020;-74
2021/08/23 05:25:43;;;;;;;2.35;1.15;;;23.80;78.50;;;;;;5074670;28;20502;-75
2021/08/23 05:28:09;;;;;;;1.20;1.15;;;23.80;77.70;;;;;;5093005;28;20460;-75
2021/08/23 05:30:35;;;;;;;1.00;1.00;;;23.90;77.30;;;;;;5074766;28;20020;-75
2021/08/23 05:33:01;;;;;;;3.97;0.93;;;23.80;77.20;;;;;;5074634;28;20452;-74
2021/08/23 05:35:27;;;;;;;1.30;0.90;;;23.90;77.10;;;;;;5093187;28;20020;-75
2021/08/23 05:37:53;;;;;;;1.58;1.08;;;23.90;76.80;;;;;;5092889;28;20030;-75
2021/08/23 05:40:23;;;;;;;0.70;0.70;;;23.90;76.90;;;;;;5092922;28;20059;-74
2021/08/23 05:42:49;;;;;;;1.13;0.93;;;23.90;76.50;;;;;;5092291;28;20020;-75
2021/08/23 05:45:16;;;;;;;1.15;1.08;;;24.00;76.30;;;;;;5092844;28;20020;-75
2021/08/23 05:47:41;;;;;;;1.05;0.95;;;24.00;76.20;;;;;;5092741;28;20142;-74
2021/08/23 05:50:07;;;;;;;0.80;0.80;;;24.00;76.10;;;;;;5092726;28;20131;-74
2021/08/23 05:52:33;;;;;;;1.02;0.95;;;24.00;76.40;;;;;;5092830;28;20023;-74
2021/08/23 05:54:59;;;;;;;0.50;0.50;;;24.00;75.90;;;;;;5092757;28;20087;-75
2021/08/23 05:57:27;;;;;;;1.25;0.80;;;24.10;76.70;;;;;;5092929;28;20024;-74
2021/08/23 05:59:54;;;;;;;1.50;1.00;;;24.10;75.70;;;;;;5092614;28;20028;-75
2021/08/23 06:02:19;;;;;;;1.30;0.90;;;24.10;76.10;;;;;;5092457;28;20031;-75
2021/08/23 06:04:45;;;;;;;0.90;0.90;;;24.10;76.60;;;;;;5092325;28;20024;-75
2021/08/23 06:07:11;;;;;;;1.13;1.00;;;24.10;76.30;;;;;;5074429;28;20040;-74
2021/08/23 06:09:37;;;;;;;1.20;0.90;;;24.20;77.50;;;;;;5089713;28;20047;-75
2021/08/23 06:12:03;;;;;;;1.70;0.90;;;24.20;77.40;;;;;;5072323;28;20078;-74
2021/08/23 06:14:28;;;;;;;0.68;0.68;;;24.20;76.70;;;;;;5072279;28;20023;-75
2021/08/23 06:16:54;;;;;;;0.70;0.70;;;24.30;75.80;;;;;;5072474;28;20017;-74
2021/08/23 06:19:20;;;;;;;0.80;0.80;;;24.30;75.40;;;;;;5075414;28;20059;-74
2021/08/23 06:21:45;;;;;;;2.33;1.10;;;24.40;75.60;;;;;;5076058;28;20021;-74
2021/08/23 06:24:11;;;;;;;3.60;2.10;;;24.40;77.70;;;;;;5076183;28;20024;-75
2021/08/23 06:26:37;;;;;;;2.45;2.25;;;24.40;82.20;;;;;;5076274;28;20016;-74
2021/08/23 06:29:03;;;;;;;8.50;2.90;;;24.40;85.10;;;;;;5075339;28;20025;-74
2021/08/23 06:31:29;;;;;;;5.00;2.72;;;24.40;86.00;;;;;;5094005;28;20476;-75
2021/08/23 06:33:55;;;;;;;4.38;2.83;;;24.40;86.40;;;;;;5095649;28;20031;-74
2021/08/23 06:36:20;;;;;;;4.10;2.78;;;24.50;86.10;;;;;;5095701;28;20035;-74
2021/08/23 06:38:46;;;;;;;6.05;4.00;;;24.40;87.90;;;;;;5077748;28;20156;-74
2021/08/23 06:41:17;;;;;;;5.20;4.00;;;24.40;90.10;;;;;;5095143;28;20048;-75
2021/08/23 06:43:43;;;;;;;5.90;4.30;;;24.50;90.40;;;;;;5095985;28;20472;-74
2021/08/23 06:46:08;;;;;;;11.20;4.15;;;24.50;90.60;;;;;;5096140;28;20458;-75
2021/08/23 06:48:34;;;;;;;10.00;3.95;;;24.60;91.00;;;;;;5077061;28;20020;-74
2021/08/23 06:51:00;;;;;;;4.18;3.78;;;24.60;91.00;;;;;;5095776;28;20475;-74
2021/08/23 06:53:25;;;;;;;7.13;4.15;;;24.60;90.40;;;;;;5077827;28;20022;-74
2021/08/23 06:55:51;;;;;;;3.50;3.30;;;24.60;90.20;;;;;;5096019;28;20389;-74
2021/08/23 06:58:17;;;;;;;10.82;3.42;;;24.70;90.00;;;;;;5091626;28;20032;-74
2021/08/23 07:00:42;;;;;;;3.72;3.42;;;24.60;89.40;;;;;;5089940;28;20547;-75
2021/08/23 07:03:08;;;;;;;5.00;3.38;;;24.60;89.80;;;;;;5081122;28;20032;-75
2021/08/23 07:05:34;;;;;;;4.85;3.58;;;24.60;89.80;;;;;;5084230;28;20028;-75
2021/08/23 07:08:00;;;;;;;5.60;3.30;;;24.70;90.30;;;;;;5070321;28;20127;-75
2021/08/23 07:10:25;;;;;;;8.88;3.85;;;24.60;90.70;;;;;;5083732;28;20101;-75
2021/08/23 07:12:52;;;;;;;5.43;3.97;;;24.50;90.90;;;;;;5090148;28;20028;-75
2021/08/23 07:15:17;;;;;;;5.45;4.15;;;24.40;91.50;;;;;;5091664;28;20023;-75
2021/08/23 07:17:43;;;;;;;4.53;3.80;;;24.30;91.70;;;;;;5087324;28;20032;-75
2021/08/23 07:20:09;;;;;;;6.45;4.15;;;24.20;92.20;;;;;;5075337;28;20027;-75
2021/08/23 07:22:35;;;;;;;5.28;4.47;;;24.20;92.50;;;;;;5090067;28;20487;-75
2021/08/23 07:25:01;;;;;;;5.93;4.30;;;24.10;92.80;;;;;;5084764;28;20039;-74
2021/08/23 07:27:27;;;;;;;4.13;3.72;;;24.10;93.00;;;;;;5062172;28;20109;-74
2021/08/23 07:29:53;;;;;;;4.30;3.50;;;24.00;92.60;;;;;;5094696;28;20020;-75
2021/08/23 07:32:19;;;;;;;7.53;3.05;;;24.00;92.70;;;;;;5073785;28;20482;-74
2021/08/23 07:34:45;;;;;;;6.55;3.03;;;24.00;92.70;;;;;;5082615;28;20439;-74
2021/08/23 07:37:14;;;;;;;4.38;3.22;;;23.90;93.00;;;;;;5090913;28;20056;-74
2021/08/23 07:39:41;;;;;;;4.60;2.95;;;23.90;92.90;;;;;;5076953;28;20599;-74
2021/08/23 07:42:07;;;;;;;3.42;2.47;;;24.00;92.80;;;;;;5085656;28;20367;-74
2021/08/23 07:44:33;;;;;;;2.70;2.50;;;24.10;92.50;;;;;;5084754;28;20134;-74
2021/08/23 07:46:59;;;;;;;5.57;3.17;;;24.10;92.50;;;;;;5089430;28;20104;-74
2021/08/23 07:49:24;;;;;;;3.40;3.05;;;24.00;92.50;;;;;;5087914;28;20016;-74
2021/08/23 07:51:50;;;;;;;6.95;3.67;;;24.10;92.70;;;;;;5083159;28;20024;-74
2021/08/23 07:54:16;;;;;;;3.67;3.10;;;24.20;92.50;;;;;;5091858;28;20443;-75
2021/08/23 07:56:44;;;;;;;4.15;3.13;;;24.20;92.20;;;;;;5079908;28;20039;-75
2021/08/23 07:59:10;;;;;;;6.05;3.47;;;24.20;92.00;;;;;;5080369;28;20032;-74
2021/08/23 08:01:36;;;;;;;4.18;3.78;;;24.20;91.80;;;;;;5084746;28;20039;-75
2021/08/23 08:04:01;;;;;;;4.53;3.53;;;24.20;91.80;;;;;;5066758;28;20096;-74
2021/08/23 08:06:27;;;;;;;5.25;3.72;;;24.30;91.70;;;;;;5085942;28;20022;-74
2021/08/23 08:08:53;;;;;;;3.60;2.95;;;24.30;91.50;;;;;;5078512;28;20048;-74
2021/08/23 08:11:20;;;;;;;5.85;4.22;;;24.40;91.30;;;;;;5069085;28;20029;-74
2021/08/23 08:13:46;;;;;;;5.50;3.60;;;24.40;91.40;;;;;;5082676;28;20097;-74
2021/08/23 08:16:11;;;;;;;9.40;3.45;;;24.40;91.80;;;;;;5084971;28;20051;-74
2021/08/23 08:18:37;;;;;;;3.72;3.20;;;24.50;92.10;;;;;;5090203;28;20016;-74
2021/08/23 08:21:03;;;;;;;3.80;3.30;;;24.50;92.40;;;;;;5067665;28;20448;-75
2021/08/23 08:23:29;;;;;;;5.57;3.25;;;24.50;92.20;;;;;;5084661;28;20107;-75
2021/08/23 08:25:55;;;;;;;3.47;3.17;;;24.40;92.10;;;;;;5068249;28;20070;-75
2021/08/23 08:28:21;;;;;;;8.20;3.95;;;24.30;92.50;;;;;;5091688;28;20491;-74
2021/08/23 08:30:47;;;;;;;6.68;3.05;;;24.40;92.60;;;;;;5090543;28;20033;-74
2021/08/23 08:33:15;;;;;;;9.23;3.38;;;24.40;92.60;;;;;;5086053;28;20020;-74
2021/08/23 08:35:41;;;;;;;3.10;2.88;;;24.50;92.80;;;;;;5089886;28;20152;-75
2021/08/23 08:38:06;;;;;;;3.60;3.30;;;24.60;93.00;;;;;;5091346;28;20031;-75
2021/08/23 08:40:32;;;;;;;4.65;3.85;;;24.80;93.20;;;;;;5083092;28;20020;-74
2021/08/23 08:42:58;;;;;;;4.40;4.00;;;24.80;92.70;;;;;;5085766;28;20059;-75
2021/08/23 08:45:27;;;;;;;7.30;4.05;;;24.80;93.00;;;;;;5086039;28;20039;-74
2021/08/23 08:47:55;;;;;;;10.85;4.18;;;24.70;93.00;;;;;;5076983;28;20085;-74
2021/08/23 08:50:22;;;;;;;4.00;3.60;;;24.70;92.80;;;;;;5086195;28;20031;-74
2021/08/23 08:52:48;;;;;;;4.18;3.70;;;24.70;92.80;;;;;;5082568;28;20421;-74
2021/08/23 08:55:14;;;;;;;4.15;3.75;;;24.70;92.60;;;;;;5078522;28;20060;-74
2021/08/23 08:57:42;;;;;;;6.88;4.72;;;24.80;92.70;;;;;;5073445;28;20700;-74
2021/08/23 09:00:09;;;;;;;7.22;4.68;;;24.90;92.80;;;;;;5083655;28;20031;-75
2021/08/23 09:02:35;;;;;;;4.70;3.85;;;24.80;92.90;;;;;;5072847;28;20020;-75
2021/08/23 09:05:19;;;;;;;5.75;4.38;;;24.90;92.70;;;;;;5082006;28;20044;-74
2021/08/23 09:07:49;;;;;;;5.68;4.78;;;25.00;93.00;;;;;;5089941;28;20373;-74
2021/08/23 09:10:23;;;;;;;10.05;4.75;;;25.00;93.00;;;;;;5085629;28;20149;-75
2021/08/23 09:13:08;;;;;;;4.03;3.70;;;25.00;92.40;;;;;;5078395;28;20108;-74
2021/08/23 09:15:36;;;;;;;5.72;4.13;;;25.10;92.50;;;;;;5075328;28;20081;-75
2021/08/23 09:18:09;;;;;;;5.40;3.40;;;25.10;92.50;;;;;;5082819;28;20456;-75
2021/08/23 09:20:39;;;;;;;3.90;3.33;;;25.20;90.80;;;;;;5082043;28;20454;-77
2021/08/23 09:23:13;;;;;;;3.47;3.17;;;25.30;90.30;;;;;;5077794;28;20094;-75
2021/08/23 09:25:41;;;;;;;2.67;2.47;;;25.40;90.50;;;;;;5083469;28;20446;-75
2021/08/23 09:28:08;;;;;;;3.55;3.25;;;25.50;90.80;;;;;;5079620;28;20424;-75
2021/08/23 09:30:34;;;;;;;4.03;2.90;;;25.60;90.10;;;;;;5081378;28;20082;-75
2021/08/23 09:33:06;;;;;;;4.63;3.60;;;25.80;91.10;;;;;;5080255;28;20016;-75
2021/08/23 09:35:36;;;;;;;;;;;25.90;91.20;;;;;;5081126;28;21048;-75
2021/08/23 09:38:13;;;;;;;6.78;2.95;;;25.90;90.80;;;;;;5081853;28;19950;-75
2021/08/23 09:40:39;;;;;;;3.55;3.33;;;25.90;89.40;;;;;;5088161;28;20041;-75
2021/08/23 09:43:11;;;;;;;3.38;2.55;;;26.00;88.00;;;;;;5073621;28;20487;-75
2021/08/23 09:45:44;;;;;;;3.08;2.58;;;25.90;86.10;;;;;;5069008;28;20036;-75
2021/08/23 09:48:10;;;;;;;3.50;3.22;;;26.00;86.80;;;;;;5080537;28;20373;-75
2021/08/23 09:50:41;;;;;;;4.05;3.65;;;26.00;89.50;;;;;;5089183;28;20121;-75
2021/08/23 09:53:12;;;;;;;4.22;3.80;;;26.00;90.60;;;;;;5082762;28;20646;-75
2021/08/23 09:55:44;;;;;;;3.80;3.17;;;26.20;90.70;;;;;;5066879;28;20032;-74
2021/08/23 09:58:11;;;;;;;4.38;3.08;;;26.30;90.10;;;;;;5072312;28;20024;-76
2021/08/23 10:01:23;;;;;;;6.97;3.00;;;26.30;89.90;;;;;;5085226;28;20020;-74
2021/08/23 10:03:49;;;;;;;3.40;3.10;;;26.40;89.80;;;;;;5086485;28;20691;-75
2021/08/23 10:06:15;;;;;;;6.32;2.92;;;26.50;87.10;;;;;;5088625;28;20027;-76
2021/08/23 10:08:41;;;;;;;4.82;2.53;;;26.50;88.80;;;;;;5071431;28;20518;-76
2021/08/23 10:11:10;;;;;;;3.22;2.92;;;26.60;88.80;;;;;;5090250;28;20028;-76
2021/08/23 10:13:37;;;;;;;3.28;2.30;;;26.60;88.40;;;;;;5089640;28;20086;-75
2021/08/23 10:16:02;;;;;;;4.25;2.78;;;26.70;87.20;;;;;;5070481;28;20475;-75
2021/08/23 10:18:29;;;;;;;2.60;2.40;;;26.80;86.40;;;;;;5087219;28;20055;-75
2021/08/23 10:20:54;;;;;;;3.28;2.38;;;26.80;87.50;;;;;;5089959;28;20131;-76
2021/08/23 10:23:20;;;;;;;2.70;2.55;;;26.90;85.70;;;;;;5087904;28;20115;-74
2021/08/23 10:25:48;;;;;;;2.47;2.28;;;27.00;83.80;;;;;;5085996;28;20032;-75
2021/08/23 10:28:19;;;;;;;2.55;2.00;;;27.10;85.80;;;;;;5081582;28;20069;-74
2021/08/23 10:30:46;;;;;;;2.25;2.10;;;27.20;85.20;;;;;;5065987;28;20035;-75
2021/08/23 10:33:18;;;;;;;1.95;1.85;;;27.30;82.70;;;;;;5058699;28;20552;-75
2021/08/23 10:35:53;;;;;;;1.83;1.73;;;27.20;82.40;;;;;;5075949;28;20025;-76
2021/08/23 10:38:22;;;;;;;1.63;1.50;;;27.40;81.10;;;;;;5066252;28;20028;-74
2021/08/23 10:40:52;;;;;;;1.45;1.35;;;27.40;80.00;;;;;;5073111;28;20024;-75
2021/08/23 10:43:20;;;;;;;2.03;1.80;;;27.40;80.70;;;;;;5086272;28;20111;-75
2021/08/23 10:45:47;;;;;;;2.20;1.33;;;27.40;77.20;;;;;;5084052;28;20060;-75
2021/08/23 10:48:14;;;;;;;1.73;1.63;;;27.50;79.20;;;;;;5076699;28;20081;-75
2021/08/23 10:50:39;;;;;;;2.78;1.48;;;27.60;78.70;;;;;;5084104;28;20024;-75
2021/08/23 10:53:14;;;;;;;1.60;1.50;;;27.70;80.00;;;;;;5068629;28;20522;-75
2021/08/23 10:55:40;;;;;;;1.85;1.30;;;27.80;79.70;;;;;;5083934;28;20388;-75
2021/08/23 10:58:08;;;;;;;1.73;1.23;;;27.90;77.20;;;;;;5048592;28;20036;-76
2021/08/23 11:00:42;;;;;;;1.80;1.10;;;28.10;78.20;;;;;;5063960;28;20028;-76
2021/08/23 11:03:09;;;;;;;1.35;1.25;;;28.10;77.10;;;;;;5066512;28;20047;-75
2021/08/23 11:05:36;;;;;;;1.10;1.10;;;28.10;75.60;;;;;;5087476;28;20487;-75
2021/08/23 11:08:14;;;;;;;0.98;0.95;;;28.10;75.30;;;;;;5070921;28;20413;-75
2021/08/23 11:10:40;;;;;;;1.30;1.20;;;28.20;75.30;;;;;;5088736;28;20028;-75
2021/08/23 11:13:17;;;;;;;0.90;0.90;;;28.20;74.50;;;;;;5092317;28;20024;-75
2021/08/23 11:15:45;;;;;;;1.20;1.10;;;28.30;75.90;;;;;;5092456;28;20024;-77
2021/08/23 11:18:18;;;;;;;1.23;1.13;;;28.20;72.90;;;;;;5093482;28;20510;-75
2021/08/23 11:20:51;;;;;;;2.15;1.23;;;28.10;73.20;;;;;;5091866;28;20028;-75
2021/08/23 11:23:22;;;;;;;1.40;1.30;;;28.20;73.80;;;;;;5087681;28;20105;-75
2021/08/23 11:25:50;;;;;;;4.35;1.73;;;28.20;75.30;;;;;;5092242;28;20055;-75
2021/08/23 11:28:20;;;;;;;1.67;1.58;;;28.30;72.10;;;;;;5093137;28;20025;-74
2021/08/23 11:30:48;;;;;;;1.58;1.40;;;28.30;74.80;;;;;;5092130;28;20018;-75
2021/08/23 11:33:27;;;;;;;1.35;1.33;;;28.30;72.20;;;;;;5073927;28;20069;-75
2021/08/23 11:35:57;;;;;;;1.75;1.58;;;28.30;71.70;;;;;;5091456;28;20103;-75
2021/08/23 11:38:31;;;;;;;1.80;1.60;;;28.30;71.60;;;;;;5092388;28;20049;-75
2021/08/23 11:40:57;;;;;;;1.95;1.85;;;28.30;71.90;;;;;;5074186;28;20024;-75
2021/08/23 11:43:27;;;;;;;1.63;1.52;;;28.10;71.10;;;;;;5092166;28;20024;-75
2021/08/23 11:45:54;;;;;;;1.77;1.63;;;28.10;72.10;;;;;;5091882;28;20035;-75
2021/08/23 11:48:20;;;;;;;2.65;1.90;;;28.30;72.80;;;;;;5092312;28;20025;-75
2021/08/23 11:50:46;;;;;;;1.70;1.60;;;28.50;73.60;;;;;;5091820;28;20027;-75
2021/08/23 11:53:13;;;;;;;2.20;1.67;;;28.40;70.70;;;;;;5091846;28;20099;-75
2021/08/23 11:55:42;;;;;;;2.03;1.92;;;28.50;72.10;;;;;;5092547;28;20103;-75
2021/08/23 11:58:10;;;;;;;4.72;1.80;;;28.60;70.40;;;;;;5092099;28;20020;-75
2021/08/23 12:00:38;;;;;;;3.83;2.03;;;28.80;69.40;;;;;;5091565;28;20024;-75
2021/08/23 12:03:10;;;;;;;3.58;2.00;;;28.80;70.20;;;;;;5074012;28;20015;-76
2021/08/23 12:05:40;;;;;;;1.90;1.80;;;28.70;69.30;;;;;;5083814;28;20031;-76
2021/08/23 12:08:07;;;;;;;2.60;2.25;;;28.80;70.20;;;;;;5084425;28;20047;-75
2021/08/23 12:10:36;;;;;;;2.00;1.90;;;28.80;70.20;;;;;;5065077;28;20132;-75
2021/08/23 12:13:07;;;;;;;2.08;1.90;;;29.10;70.50;;;;;;5089547;28;20054;-75
2021/08/23 12:15:36;;;;;;;2.22;2.03;;;29.20;69.20;;;;;;5090213;28;20023;-75
2021/08/23 12:18:11;;;;;;;1.58;1.48;;;29.00;67.50;;;;;;5091104;28;20731;-75
2021/08/23 12:20:38;;;;;;;2.80;2.50;;;28.80;68.80;;;;;;5089464;28;20028;-75
2021/08/23 12:23:04;;;;;;;2.03;1.92;;;28.60;68.30;;;;;;5090753;28;20036;-75
2021/08/23 12:25:30;;;;;;;2.15;2.05;;;28.60;69.30;;;;;;5090357;28;20529;-75
2021/08/23 12:27:56;;;;;;;3.50;2.00;;;28.60;69.90;;;;;;5090969;28;20065;-75
2021/08/23 12:30:32;;;;;;;2.22;2.10;;;28.60;70.60;;;;;;5091531;28;20012;-75
2021/08/23 12:32:59;;;;;;;2.45;2.25;;;28.40;69.40;;;;;;5091354;28;20031;-75
2021/08/23 12:35:29;;;;;;;4.63;2.35;;;28.40;71.50;;;;;;5090768;28;20028;-75
2021/08/23 12:37:56;;;;;;;1.92;1.80;;;28.50;71.90;;;;;;5090880;28;20024;-76
2021/08/23 12:40:24;;;;;;;2.60;2.40;;;28.40;71.20;;;;;;5091148;28;20051;-75
2021/08/23 12:42:55;;;;;;;2.67;2.47;;;28.50;71.80;;;;;;5090470;28;20046;-75
2021/08/23 12:45:21;;;;;;;3.47;2.28;;;28.60;71.90;;;;;;5090410;28;20020;-76
2021/08/23 12:47:47;;;;;;;2.10;2.00;;;28.60;72.00;;;;;;5091167;28;20024;-75
2021/08/23 12:50:12;;;;;;;2.60;2.35;;;28.50;72.00;;;;;;5090279;28;20020;-75